EZY68ZJ EGKK-LFMT
Flight info
| Callsign | EZY68ZJ |
|---|---|
| Flight time | N/A |
| Altitude | 33000 |
| Route | SFD Y47 BENBO UL612 VEULE DCT DEKOD DCT DISAK DCT DIRMO DCT ETAMO DCT ADEKA DCT MOKDI DCT MEN |
| Aircraft | A320/M-SDE2E3FGHIJ1RWXYZ/LB1 |
Departure
| Time | N/A |
|---|---|
| Airport | London Gatwick Airport (EGKK) |
Arrival
| Time | 2026-05-01 11:04 |
|---|---|
| Airport | Montpellier-Méditerranée Airport (LFMT) |
| Time | Latitude | Longitude | Altitude | Speed | Heading |
|---|---|---|---|---|---|
| 2026-05-01 09:49 | 50.72880 | 0.11057 | 17785 ft | 353 kts | 192° |
| 2026-05-01 09:49 | 50.70485 | 0.10181 | 18357 ft | 356 kts | 192° |
| 2026-05-01 09:49 | 50.68068 | 0.09299 | 18881 ft | 358 kts | 191° |
| 2026-05-01 09:49 | 50.65630 | 0.08414 | 19381 ft | 361 kts | 191° |
| 2026-05-01 09:50 | 50.63176 | 0.07523 | 19871 ft | 363 kts | 191° |
| 2026-05-01 09:50 | 50.60706 | 0.06630 | 20357 ft | 366 kts | 191° |
| 2026-05-01 09:50 | 50.58219 | 0.05730 | 20845 ft | 368 kts | 191° |
| 2026-05-01 09:50 | 50.55717 | 0.04825 | 21327 ft | 370 kts | 191° |
| 2026-05-01 09:51 | 50.53201 | 0.03918 | 21818 ft | 372 kts | 191° |
| 2026-05-01 09:51 | 50.50672 | 0.03008 | 22291 ft | 374 kts | 191° |
| 2026-05-01 09:51 | 50.48102 | 0.02364 | 22745 ft | 375 kts | 181° |
| 2026-05-01 09:51 | 50.45500 | 0.02582 | 23193 ft | 376 kts | 170° |
| 2026-05-01 09:52 | 50.42977 | 0.03691 | 23635 ft | 379 kts | 158° |
| 2026-05-01 09:52 | 50.40646 | 0.05643 | 24002 ft | 383 kts | 148° |
| 2026-05-01 09:52 | 50.38417 | 0.07960 | 24344 ft | 386 kts | 148° |
| 2026-05-01 09:52 | 50.36172 | 0.10289 | 24700 ft | 388 kts | 148° |
| 2026-05-01 09:53 | 50.33915 | 0.12622 | 25065 ft | 390 kts | 148° |
| 2026-05-01 09:53 | 50.31647 | 0.14959 | 25422 ft | 392 kts | 148° |
| 2026-05-01 09:53 | 50.29362 | 0.17308 | 25772 ft | 393 kts | 148° |
| 2026-05-01 09:53 | 50.27071 | 0.19661 | 26120 ft | 395 kts | 148° |
| 2026-05-01 09:54 | 50.24764 | 0.22028 | 26461 ft | 397 kts | 148° |
| 2026-05-01 09:54 | 50.22449 | 0.24401 | 26796 ft | 399 kts | 148° |
| 2026-05-01 09:54 | 50.20121 | 0.26789 | 27122 ft | 401 kts | 148° |
| 2026-05-01 09:54 | 50.17784 | 0.29190 | 27440 ft | 404 kts | 148° |
| 2026-05-01 09:55 | 50.15435 | 0.31608 | 27745 ft | 406 kts | 148° |
| 2026-05-01 09:55 | 50.13070 | 0.34040 | 28064 ft | 408 kts | 148° |
| 2026-05-01 09:55 | 50.10696 | 0.36480 | 28392 ft | 410 kts | 148° |
| 2026-05-01 09:55 | 50.08309 | 0.38935 | 28716 ft | 412 kts | 148° |
| 2026-05-01 09:56 | 50.05916 | 0.41395 | 29025 ft | 413 kts | 148° |
| 2026-05-01 09:56 | 50.03507 | 0.43862 | 29328 ft | 415 kts | 148° |
| 2026-05-01 09:56 | 50.01089 | 0.46333 | 29610 ft | 417 kts | 148° |
| 2026-05-01 09:56 | 49.98660 | 0.48809 | 29897 ft | 418 kts | 148° |
| 2026-05-01 09:57 | 49.96220 | 0.51292 | 30161 ft | 420 kts | 148° |
| 2026-05-01 09:57 | 49.93769 | 0.53783 | 30395 ft | 422 kts | 148° |
| 2026-05-01 09:57 | 49.91305 | 0.56283 | 30630 ft | 424 kts | 148° |
| 2026-05-01 09:57 | 49.88836 | 0.58784 | 30904 ft | 424 kts | 148° |
| 2026-05-01 09:58 | 49.86371 | 0.61285 | 31228 ft | 423 kts | 148° |
| 2026-05-01 09:58 | 49.83906 | 0.63768 | 31551 ft | 422 kts | 148° |
| 2026-05-01 09:58 | 49.81432 | 0.66205 | 31874 ft | 421 kts | 149° |
| 2026-05-01 09:58 | 49.78952 | 0.68607 | 32201 ft | 420 kts | 149° |
| 2026-05-01 09:59 | 49.76473 | 0.70991 | 32530 ft | 419 kts | 149° |
| 2026-05-01 09:59 | 49.74001 | 0.73369 | 32855 ft | 418 kts | 149° |
| 2026-05-01 09:59 | 49.71532 | 0.75748 | 33150 ft | 418 kts | 149° |
| 2026-05-01 09:59 | 49.69064 | 0.78136 | 33223 ft | 418 kts | 149° |
| 2026-05-01 10:00 | 49.64146 | 0.82910 | 33234 ft | 417 kts | 149° |
| 2026-05-01 10:00 | 49.59235 | 0.87664 | 33234 ft | 417 kts | 149° |
| 2026-05-01 10:01 | 49.54323 | 0.92402 | 33236 ft | 416 kts | 149° |
| 2026-05-01 10:01 | 49.49419 | 0.97105 | 33243 ft | 415 kts | 148° |
| 2026-05-01 10:02 | 49.44510 | 1.01797 | 33236 ft | 416 kts | 148° |
| 2026-05-01 10:02 | 49.39591 | 1.06500 | 33230 ft | 417 kts | 148° |
| 2026-05-01 10:03 | 49.34667 | 1.11207 | 33227 ft | 417 kts | 148° |
| 2026-05-01 10:03 | 49.29762 | 1.15874 | 33234 ft | 418 kts | 148° |
| 2026-05-01 10:04 | 49.24820 | 1.20561 | 33231 ft | 418 kts | 148° |
| 2026-05-01 10:04 | 49.19880 | 1.25246 | 33232 ft | 418 kts | 148° |
| 2026-05-01 10:05 | 49.14900 | 1.29948 | 33232 ft | 418 kts | 148° |
| 2026-05-01 10:05 | 49.09986 | 1.34579 | 33228 ft | 418 kts | 148° |
| 2026-05-01 10:06 | 49.05044 | 1.39229 | 33260 ft | 417 kts | 148° |
| 2026-05-01 10:06 | 49.00111 | 1.43863 | 33260 ft | 416 kts | 148° |
| 2026-05-01 10:07 | 48.95187 | 1.48472 | 33256 ft | 415 kts | 148° |
| 2026-05-01 10:07 | 48.90267 | 1.53054 | 33252 ft | 415 kts | 148° |
| 2026-05-01 10:08 | 48.82897 | 1.59920 | 33241 ft | 414 kts | 148° |
| 2026-05-01 10:09 | 48.77990 | 1.64492 | 33232 ft | 414 kts | 148° |
| 2026-05-01 10:09 | 48.73079 | 1.69042 | 33227 ft | 414 kts | 148° |
| 2026-05-01 10:10 | 48.68165 | 1.73574 | 33230 ft | 414 kts | 148° |
| 2026-05-01 10:10 | 48.60801 | 1.80351 | 33238 ft | 413 kts | 148° |
| 2026-05-01 10:11 | 48.55999 | 1.84763 | 33239 ft | 412 kts | 148° |
| 2026-05-01 10:11 | 48.51113 | 1.89258 | 33238 ft | 411 kts | 148° |
| 2026-05-01 10:12 | 48.47021 | 1.93012 | 33236 ft | 411 kts | 148° |
| 2026-05-01 10:13 | 48.38909 | 2.00386 | 33250 ft | 410 kts | 148° |
| 2026-05-01 10:13 | 48.34026 | 2.04816 | 33248 ft | 410 kts | 148° |
| 2026-05-01 10:14 | 48.26352 | 2.10358 | 33244 ft | 412 kts | 166° |
| 2026-05-01 10:14 | 48.20700 | 2.11610 | 33238 ft | 414 kts | 169° |
| 2026-05-01 10:15 | 48.14998 | 2.12813 | 33247 ft | 414 kts | 169° |
| 2026-05-01 10:15 | 48.09236 | 2.13417 | 33227 ft | 416 kts | 174° |
| 2026-05-01 10:16 | 48.03462 | 2.13750 | 33240 ft | 415 kts | 174° |
| 2026-05-01 10:17 | 47.95733 | 2.14197 | 33242 ft | 415 kts | 174° |
| 2026-05-01 10:17 | 47.86129 | 2.14763 | 33240 ft | 416 kts | 174° |
| 2026-05-01 10:18 | 47.77466 | 2.15282 | 33258 ft | 416 kts | 175° |
| 2026-05-01 10:19 | 47.71670 | 2.15605 | 33235 ft | 417 kts | 175° |
| 2026-05-01 10:19 | 47.65871 | 2.15942 | 33229 ft | 417 kts | 175° |
| 2026-05-01 10:20 | 47.57157 | 2.16446 | 33240 ft | 418 kts | 175° |
| 2026-05-01 10:20 | 47.51337 | 2.16786 | 33231 ft | 419 kts | 175° |
| 2026-05-01 10:21 | 47.42567 | 2.17291 | 33234 ft | 420 kts | 175° |
| 2026-05-01 10:22 | 47.33792 | 2.17800 | 33239 ft | 422 kts | 176° |
| 2026-05-01 10:23 | 47.24964 | 2.18305 | 33227 ft | 424 kts | 176° |
| 2026-05-01 10:23 | 47.16093 | 2.18803 | 33233 ft | 426 kts | 176° |
| 2026-05-01 10:24 | 47.04533 | 2.21776 | 33227 ft | 428 kts | 158° |
| 2026-05-01 10:25 | 46.94351 | 2.27736 | 33240 ft | 430 kts | 159° |
| 2026-05-01 10:26 | 46.88788 | 2.30978 | 33236 ft | 431 kts | 159° |
| 2026-05-01 10:27 | 46.78248 | 2.39269 | 33239 ft | 433 kts | 147° |
| 2026-05-01 10:28 | 46.70685 | 2.46485 | 33238 ft | 433 kts | 148° |
| 2026-05-01 10:28 | 46.63130 | 2.53639 | 33260 ft | 431 kts | 148° |
| 2026-05-01 10:29 | 46.55593 | 2.60761 | 33260 ft | 430 kts | 148° |
| 2026-05-01 10:30 | 46.45512 | 2.70267 | 33238 ft | 434 kts | 148° |
| 2026-05-01 10:31 | 46.35352 | 2.79812 | 33234 ft | 436 kts | 149° |
| 2026-05-01 10:32 | 46.27694 | 2.86956 | 33233 ft | 437 kts | 149° |
| 2026-05-01 10:33 | 46.17449 | 2.96487 | 33242 ft | 438 kts | 149° |
| 2026-05-01 10:34 | 46.09746 | 3.03631 | 33228 ft | 440 kts | 150° |
| 2026-05-01 10:34 | 46.04566 | 3.08414 | 33231 ft | 444 kts | 150° |
| 2026-05-01 10:35 | 45.96674 | 3.15470 | 33240 ft | 444 kts | 158° |
| 2026-05-01 10:35 | 45.90794 | 3.17825 | 33231 ft | 437 kts | 178° |
| 2026-05-01 10:36 | 45.81738 | 3.17830 | 33250 ft | 437 kts | 183° |
| 2026-05-01 10:37 | 45.75655 | 3.17751 | 33250 ft | 438 kts | 183° |
| 2026-05-01 10:37 | 45.66468 | 3.17622 | 33232 ft | 439 kts | 184° |
| 2026-05-01 10:38 | 45.60384 | 3.17541 | 33238 ft | 441 kts | 184° |
| 2026-05-01 10:38 | 45.54250 | 3.17464 | 33245 ft | 441 kts | 184° |
| 2026-05-01 10:39 | 45.48103 | 3.17388 | 33245 ft | 442 kts | 184° |
| 2026-05-01 10:39 | 45.41949 | 3.17317 | 33252 ft | 443 kts | 184° |
| 2026-05-01 10:40 | 45.35785 | 3.17230 | 33259 ft | 443 kts | 184° |
| 2026-05-01 10:40 | 45.29618 | 3.17137 | 33250 ft | 444 kts | 184° |
| 2026-05-01 10:41 | 45.23438 | 3.17054 | 33256 ft | 444 kts | 184° |
| 2026-05-01 10:42 | 45.14160 | 3.16934 | 32725 ft | 444 kts | 184° |
| 2026-05-01 10:42 | 45.11087 | 3.16898 | 32159 ft | 440 kts | 184° |
| 2026-05-01 10:42 | 45.08036 | 3.16862 | 31607 ft | 436 kts | 184° |
| 2026-05-01 10:42 | 45.05014 | 3.16823 | 31059 ft | 433 kts | 184° |
| 2026-05-01 10:43 | 45.02018 | 3.16784 | 30531 ft | 429 kts | 184° |
| 2026-05-01 10:43 | 44.99041 | 3.16745 | 29940 ft | 426 kts | 184° |
| 2026-05-01 10:43 | 44.96092 | 3.16707 | 29323 ft | 422 kts | 184° |
| 2026-05-01 10:43 | 44.93164 | 3.16668 | 28698 ft | 419 kts | 183° |
| 2026-05-01 10:44 | 44.90263 | 3.16630 | 28109 ft | 415 kts | 183° |
| 2026-05-01 10:44 | 44.87386 | 3.16591 | 27533 ft | 412 kts | 182° |
| 2026-05-01 10:44 | 44.84533 | 3.16549 | 26968 ft | 408 kts | 183° |
| 2026-05-01 10:44 | 44.81709 | 3.16509 | 26409 ft | 404 kts | 182° |
| 2026-05-01 10:45 | 44.78908 | 3.16470 | 25877 ft | 401 kts | 182° |
| 2026-05-01 10:45 | 44.76132 | 3.16434 | 25344 ft | 397 kts | 182° |
| 2026-05-01 10:45 | 44.73385 | 3.16399 | 24822 ft | 393 kts | 182° |
| 2026-05-01 10:45 | 44.70662 | 3.16362 | 24303 ft | 390 kts | 181° |
| 2026-05-01 10:46 | 44.67961 | 3.16329 | 23787 ft | 386 kts | 181° |
| 2026-05-01 10:46 | 44.65283 | 3.16297 | 23188 ft | 383 kts | 181° |
| 2026-05-01 10:46 | 44.62623 | 3.16264 | 22601 ft | 381 kts | 181° |
| 2026-05-01 10:46 | 44.59987 | 3.16482 | 22025 ft | 380 kts | 171° |
| 2026-05-01 10:47 | 44.57403 | 3.17190 | 21462 ft | 378 kts | 170° |
| 2026-05-01 10:47 | 44.54831 | 3.17909 | 20901 ft | 376 kts | 170° |
| 2026-05-01 10:47 | 44.52275 | 3.18622 | 20358 ft | 374 kts | 170° |
| 2026-05-01 10:47 | 44.49724 | 3.19332 | 19823 ft | 373 kts | 170° |
| 2026-05-01 10:48 | 44.47152 | 3.20048 | 19353 ft | 370 kts | 170° |
| 2026-05-01 10:48 | 44.44646 | 3.20743 | 19052 ft | 363 kts | 170° |
| 2026-05-01 10:48 | 44.42193 | 3.21423 | 18746 ft | 356 kts | 170° |
| 2026-05-01 10:48 | 44.39807 | 3.22082 | 18428 ft | 352 kts | 170° |
| 2026-05-01 10:49 | 44.37389 | 3.22747 | 18064 ft | 347 kts | 171° |
| 2026-05-01 10:49 | 44.35031 | 3.23396 | 17727 ft | 344 kts | 171° |
| 2026-05-01 10:49 | 44.32687 | 3.24041 | 17386 ft | 343 kts | 170° |
| 2026-05-01 10:49 | 44.30345 | 3.24683 | 17046 ft | 343 kts | 170° |
| 2026-05-01 10:50 | 44.28013 | 3.25324 | 16711 ft | 339 kts | 170° |
| 2026-05-01 10:50 | 44.25693 | 3.25963 | 16389 ft | 340 kts | 170° |
| 2026-05-01 10:50 | 44.23382 | 3.26602 | 16058 ft | 338 kts | 170° |
| 2026-05-01 10:50 | 44.21080 | 3.27238 | 15736 ft | 337 kts | 169° |
| 2026-05-01 10:51 | 44.18793 | 3.27868 | 15416 ft | 333 kts | 171° |
| 2026-05-01 10:51 | 44.16523 | 3.28493 | 15098 ft | 333 kts | 169° |
| 2026-05-01 10:51 | 44.14255 | 3.29117 | 14785 ft | 331 kts | 170° |
| 2026-05-01 10:51 | 44.12033 | 3.29726 | 14480 ft | 327 kts | 170° |
| 2026-05-01 10:52 | 44.09811 | 3.30334 | 14176 ft | 324 kts | 170° |
| 2026-05-01 10:52 | 44.07616 | 3.30933 | 13838 ft | 320 kts | 170° |
| 2026-05-01 10:52 | 44.05445 | 3.31527 | 13490 ft | 316 kts | 169° |
| 2026-05-01 10:52 | 44.03303 | 3.32114 | 13153 ft | 312 kts | 170° |
| 2026-05-01 10:53 | 44.01189 | 3.32694 | 12871 ft | 307 kts | 169° |
| 2026-05-01 10:53 | 43.99110 | 3.33264 | 12615 ft | 302 kts | 169° |
| 2026-05-01 10:53 | 43.97053 | 3.33830 | 12191 ft | 303 kts | 170° |
| 2026-05-01 10:53 | 43.94967 | 3.34399 | 11602 ft | 309 kts | 170° |
| 2026-05-01 10:54 | 43.92864 | 3.34972 | 11029 ft | 305 kts | 171° |
| 2026-05-01 10:54 | 43.90811 | 3.35534 | 10490 ft | 298 kts | 170° |
| 2026-05-01 10:54 | 43.88799 | 3.36084 | 9918 ft | 292 kts | 170° |
| 2026-05-01 10:54 | 43.86852 | 3.36736 | 9307 ft | 285 kts | 161° |
| 2026-05-01 10:55 | 43.85142 | 3.38044 | 8829 ft | 278 kts | 144° |
| 2026-05-01 10:55 | 43.83811 | 3.39929 | 8374 ft | 272 kts | 128° |
| 2026-05-01 10:55 | 43.82843 | 3.42140 | 7924 ft | 265 kts | 124° |
| 2026-05-01 10:55 | 43.81929 | 3.44308 | 7480 ft | 257 kts | 123° |
| 2026-05-01 10:56 | 43.81038 | 3.46407 | 7044 ft | 250 kts | 123° |
| 2026-05-01 10:56 | 43.80170 | 3.48450 | 6607 ft | 242 kts | 124° |
| 2026-05-01 10:56 | 43.79322 | 3.50435 | 6137 ft | 236 kts | 124° |
| 2026-05-01 10:56 | 43.78497 | 3.52364 | 5680 ft | 231 kts | 123° |
| 2026-05-01 10:57 | 43.77679 | 3.54271 | 5241 ft | 229 kts | 124° |
| 2026-05-01 10:57 | 43.76867 | 3.56158 | 4819 ft | 229 kts | 122° |
| 2026-05-01 10:57 | 43.76052 | 3.58050 | 4559 ft | 228 kts | 123° |
| 2026-05-01 10:57 | 43.75240 | 3.59931 | 4297 ft | 227 kts | 122° |
| 2026-05-01 10:58 | 43.74435 | 3.61801 | 4041 ft | 226 kts | 122° |
| 2026-05-01 10:58 | 43.73629 | 3.63675 | 3794 ft | 226 kts | 122° |
| 2026-05-01 10:58 | 43.72839 | 3.65519 | 3550 ft | 223 kts | 123° |
| 2026-05-01 10:58 | 43.72047 | 3.67368 | 3284 ft | 223 kts | 122° |
| 2026-05-01 10:59 | 43.71258 | 3.69210 | 3074 ft | 221 kts | 122° |
| 2026-05-01 10:59 | 43.70490 | 3.71004 | 3010 ft | 214 kts | 122° |
| 2026-05-01 10:59 | 43.69727 | 3.72780 | 3010 ft | 213 kts | 122° |
| 2026-05-01 10:59 | 43.68969 | 3.74546 | 3008 ft | 214 kts | 123° |
| 2026-05-01 11:00 | 43.68225 | 3.76281 | 3002 ft | 202 kts | 123° |
| 2026-05-01 11:00 | 43.67505 | 3.77904 | 2865 ft | 200 kts | 126° |
| 2026-05-01 11:00 | 43.66717 | 3.79503 | 2626 ft | 201 kts | 126° |
| 2026-05-01 11:00 | 43.65933 | 3.81053 | 2517 ft | 193 kts | 126° |
| 2026-05-01 11:01 | 43.65189 | 3.82522 | 2511 ft | 181 kts | 127° |
| 2026-05-01 11:01 | 43.64474 | 3.83938 | 2506 ft | 179 kts | 127° |
| 2026-05-01 11:01 | 43.63761 | 3.85350 | 2438 ft | 179 kts | 126° |
| 2026-05-01 11:01 | 43.63059 | 3.86738 | 2170 ft | 174 kts | 126° |
| 2026-05-01 11:02 | 43.62383 | 3.88079 | 1906 ft | 164 kts | 127° |
| 2026-05-01 11:02 | 43.61750 | 3.89335 | 1607 ft | 155 kts | 127° |
| 2026-05-01 11:02 | 43.61153 | 3.90524 | 1266 ft | 147 kts | 126° |
| 2026-05-01 11:02 | 43.60573 | 3.91665 | 913 ft | 144 kts | 127° |
| 2026-05-01 11:03 | 43.60016 | 3.92791 | 661 ft | 141 kts | 127° |
| 2026-05-01 11:03 | 43.59470 | 3.93920 | 428 ft | 142 kts | 126° |
| 2026-05-01 11:03 | 43.58909 | 3.95026 | 237 ft | 141 kts | 128° |
| 2026-05-01 11:03 | 43.58336 | 3.96116 | 41 ft | 133 kts | 127° |
| 2026-05-01 11:04 | 43.57882 | 3.97022 | 18 ft | 91 kts | 124° |
| 2026-05-01 11:04 | 43.57620 | 3.97548 | 22 ft | 42 kts | 124° |
| 2026-05-01 11:04 | 43.57484 | 3.97818 | 20 ft | 32 kts | 126° |
| 2026-05-01 11:04 | 43.57365 | 3.98061 | 17 ft | 23 kts | 121° |
| 2026-05-01 11:05 | 43.57248 | 3.98166 | 17 ft | 21 kts | 189° |
| 2026-05-01 11:05 | 43.57183 | 3.98013 | 17 ft | 21 kts | 288° |
| 2026-05-01 11:05 | 43.57263 | 3.97845 | 17 ft | 21 kts | 305° |
| 2026-05-01 11:05 | 43.57341 | 3.97692 | 19 ft | 18 kts | 305° |
| 2026-05-01 11:06 | 43.57389 | 3.97598 | 18 ft | 17 kts | 305° |
| 2026-05-01 11:06 | 43.57472 | 3.97434 | 18 ft | 14 kts | 305° |
| 2026-05-01 11:06 | 43.57509 | 3.97360 | 18 ft | 13 kts | 305° |
| 2026-05-01 11:07 | 43.57622 | 3.97133 | 19 ft | 17 kts | 304° |
| 2026-05-01 11:07 | 43.57697 | 3.96978 | 17 ft | 22 kts | 304° |
| 2026-05-01 11:07 | 43.57792 | 3.96786 | 18 ft | 26 kts | 306° |
| 2026-05-01 11:07 | 43.57901 | 3.96581 | 19 ft | 27 kts | 305° |
| 2026-05-01 11:08 | 43.57990 | 3.96404 | 23 ft | 14 kts | 304° |
| 2026-05-01 11:08 | 43.58037 | 3.96300 | 22 ft | 11 kts | 283° |
| 2026-05-01 11:08 | 43.57963 | 3.96135 | 23 ft | 9 kts | 240° |
| 2026-05-01 11:09 | 43.57934 | 3.96054 | 23 ft | 7 kts | 254° |
| 2026-05-01 11:09 | 43.57931 | 3.96041 | 22 ft | 0 kts | 255° |
| 2026-05-01 11:10 | 43.57932 | 3.96046 | 22 ft | 0 kts | 256° |